sensor_id;sensor_type;location;lat;lon;timestamp;pressure;altitude;pressure_sealevel;temperature;humidity
43934;BME280;59081;42.706;23.306;2024-01-15T00:02:04;94606.25;;;-5.06;100.00
43934;BME280;59081;42.706;23.306;2024-01-15T00:07:06;94553.03;;;-5.55;100.00
43934;BME280;59081;42.706;23.306;2024-01-15T00:12:07;94472.34;;;-5.81;100.00
43934;BME280;59081;42.706;23.306;2024-01-15T00:17:08;94539.81;;;-5.99;100.00
43934;BME280;59081;42.706;23.306;2024-01-15T00:22:09;94624.44;;;-5.50;100.00
43934;BME280;59081;42.706;23.306;2024-01-15T00:27:09;94590.09;;;-5.61;100.00
43934;BME280;59081;42.706;23.306;2024-01-15T00:32:10;94549.25;;;-5.70;100.00
43934;BME280;59081;42.706;23.306;2024-01-15T00:37:11;94563.78;;;-5.55;100.00
43934;BME280;59081;42.706;23.306;2024-01-15T00:42:14;94662.91;;;-5.11;100.00
43934;BME280;59081;42.706;23.306;2024-01-15T00:47:15;94459.19;;;-6.06;100.00
43934;BME280;59081;42.706;23.306;2024-01-15T00:52:15;94447.13;;;-6.31;100.00
43934;BME280;59081;42.706;23.306;2024-01-15T00:57:16;94617.41;;;-5.39;100.00
43934;BME280;59081;42.706;23.306;2024-01-15T01:02:17;94444.63;;;-6.55;100.00
43934;BME280;59081;42.706;23.306;2024-01-15T01:07:18;94484.97;;;-6.17;100.00
43934;BME280;59081;42.706;23.306;2024-01-15T01:12:19;94557.25;;;-4.61;100.00
43934;BME280;59081;42.706;23.306;2024-01-15T01:17:20;94401.97;;;-6.80;100.00
43934;BME280;59081;42.706;23.306;2024-01-15T01:22:21;94476.19;;;-6.64;100.00
43934;BME280;59081;42.706;23.306;2024-01-15T01:27:24;94482.06;;;-6.27;100.00
43934;BME280;59081;42.706;23.306;2024-01-15T01:32:24;94481.22;;;-5.42;100.00
43934;BME280;59081;42.706;23.306;2024-01-15T01:37:25;94470.63;;;-6.40;100.00
43934;BME280;59081;42.706;23.306;2024-01-15T01:42:26;94487.63;;;-6.01;100.00
43934;BME280;59081;42.706;23.306;2024-01-15T01:47:26;94458.13;;;-6.52;100.00
43934;BME280;59081;42.706;23.306;2024-01-15T01:52:27;94435.66;;;-6.79;100.00
43934;BME280;59081;42.706;23.306;2024-01-15T01:57:28;94449.72;;;-6.35;100.00
43934;BME280;59081;42.706;23.306;2024-01-15T02:02:36;94533.78;;;-5.76;100.00
43934;BME280;59081;42.706;23.306;2024-01-15T02:07:37;94474.81;;;-6.43;100.00
43934;BME280;59081;42.706;23.306;2024-01-15T02:12:38;94554.69;;;-6.17;100.00
43934;BME280;59081;42.706;23.306;2024-01-15T02:18:02;94599.00;;;-5.56;100.00
43934;BME280;59081;42.706;23.306;2024-01-15T02:23:18;94577.09;;;-5.58;100.00
43934;BME280;59081;42.706;23.306;2024-01-15T02:28:18;94319.47;;;-6.90;100.00
43934;BME280;59081;42.706;23.306;2024-01-15T02:33:19;94555.59;;;-5.43;100.00
43934;BME280;59081;42.706;23.306;2024-01-15T02:38:20;94352.59;;;-6.47;100.00
43934;BME280;59081;42.706;23.306;2024-01-15T02:43:20;94386.19;;;-6.34;100.00
43934;BME280;59081;42.706;23.306;2024-01-15T02:48:21;94531.31;;;-5.66;100.00
43934;BME280;59081;42.706;23.306;2024-01-15T02:53:21;94530.41;;;-5.73;100.00
43934;BME280;59081;42.706;23.306;2024-01-15T02:58:22;94366.69;;;-6.50;100.00
43934;BME280;59081;42.706;23.306;2024-01-15T03:03:23;94363.22;;;-6.16;100.00
43934;BME280;59081;42.706;23.306;2024-01-15T03:08:23;94359.56;;;-6.93;100.00
43934;BME280;59081;42.706;23.306;2024-01-15T03:13:24;94525.97;;;-6.01;100.00
43934;BME280;59081;42.706;23.306;2024-01-15T03:18:25;94448.94;;;-6.35;100.00
43934;BME280;59081;42.706;23.306;2024-01-15T03:23:25;94317.34;;;-7.00;100.00
43934;BME280;59081;42.706;23.306;2024-01-15T03:28:26;94388.03;;;-6.70;100.00
43934;BME280;59081;42.706;23.306;2024-01-15T03:33:26;94389.94;;;-6.54;100.00
43934;BME280;59081;42.706;23.306;2024-01-15T03:38:28;94480.03;;;-5.99;100.00
43934;BME280;59081;42.706;23.306;2024-01-15T03:43:29;94357.72;;;-6.89;100.00
43934;BME280;59081;42.706;23.306;2024-01-15T03:48:30;94383.97;;;-6.13;100.00
43934;BME280;59081;42.706;23.306;2024-01-15T03:53:30;94475.91;;;-5.77;100.00
43934;BME280;59081;42.706;23.306;2024-01-15T03:58:31;94455.38;;;-5.50;100.00
43934;BME280;59081;42.706;23.306;2024-01-15T04:03:31;94460.34;;;-6.07;100.00
43934;BME280;59081;42.706;23.306;2024-01-15T04:08:32;94390.50;;;-6.29;100.00
43934;BME280;59081;42.706;23.306;2024-01-15T04:13:33;94389.72;;;-6.30;100.00
43934;BME280;59081;42.706;23.306;2024-01-15T04:18:34;94350.06;;;-6.40;100.00
43934;BME280;59081;42.706;23.306;2024-01-15T04:23:34;94346.50;;;-6.28;100.00
43934;BME280;59081;42.706;23.306;2024-01-15T04:28:35;94476.03;;;-5.70;100.00
43934;BME280;59081;42.706;23.306;2024-01-15T04:33:35;94515.75;;;-5.60;100.00
43934;BME280;59081;42.706;23.306;2024-01-15T04:38:36;94321.47;;;-6.17;100.00
43934;BME280;59081;42.706;23.306;2024-01-15T04:43:37;94472.38;;;-5.62;100.00
43934;BME280;59081;42.706;23.306;2024-01-15T04:48:37;94360.50;;;-6.35;100.00
43934;BME280;59081;42.706;23.306;2024-01-15T04:53:41;94352.22;;;-6.81;100.00
43934;BME280;59081;42.706;23.306;2024-01-15T04:58:42;94498.13;;;-5.77;100.00
43934;BME280;59081;42.706;23.306;2024-01-15T05:03:44;94479.34;;;-5.22;100.00
43934;BME280;59081;42.706;23.306;2024-01-15T05:08:45;94481.84;;;-5.49;100.00
43934;BME280;59081;42.706;23.306;2024-01-15T05:13:46;94473.91;;;-4.84;100.00
43934;BME280;59081;42.706;23.306;2024-01-15T05:18:46;94440.19;;;-5.62;100.00
43934;BME280;59081;42.706;23.306;2024-01-15T05:23:47;94288.13;;;-7.05;100.00
43934;BME280;59081;42.706;23.306;2024-01-15T05:28:48;94340.16;;;-6.20;100.00
43934;BME280;59081;42.706;23.306;2024-01-15T05:33:49;94250.00;;;-7.18;100.00
43934;BME280;59081;42.706;23.306;2024-01-15T05:38:52;94201.78;;;-7.53;100.00
43934;BME280;59081;42.706;23.306;2024-01-15T05:43:52;94256.72;;;-7.24;100.00
43934;BME280;59081;42.706;23.306;2024-01-15T05:48:58;94228.38;;;-6.58;100.00
43934;BME280;59081;42.706;23.306;2024-01-15T05:54:00;94196.41;;;-7.21;100.00
43934;BME280;59081;42.706;23.306;2024-01-15T05:59:04;94308.66;;;-6.08;100.00
43934;BME280;59081;42.706;23.306;2024-01-15T06:04:05;94465.47;;;-5.63;100.00
43934;BME280;59081;42.706;23.306;2024-01-15T06:09:07;94235.56;;;-6.97;100.00
43934;BME280;59081;42.706;23.306;2024-01-15T06:14:16;94227.00;;;-7.03;100.00
43934;BME280;59081;42.706;23.306;2024-01-15T06:19:17;94342.47;;;-6.19;100.00
43934;BME280;59081;42.706;23.306;2024-01-15T06:24:18;94380.72;;;-5.83;100.00
43934;BME280;59081;42.706;23.306;2024-01-15T06:29:25;94350.97;;;-5.98;100.00
43934;BME280;59081;42.706;23.306;2024-01-15T06:34:26;94334.34;;;-5.84;100.00
43934;BME280;59081;42.706;23.306;2024-01-15T06:39:31;94244.50;;;-5.97;100.00
43934;BME280;59081;42.706;23.306;2024-01-15T06:44:32;94259.91;;;-5.26;100.00
43934;BME280;59081;42.706;23.306;2024-01-15T06:49:33;94224.81;;;-6.05;100.00
43934;BME280;59081;42.706;23.306;2024-01-15T06:54:33;94462.34;;;-4.42;100.00
43934;BME280;59081;42.706;23.306;2024-01-15T06:59:40;94239.06;;;-5.78;100.00
43934;BME280;59081;42.706;23.306;2024-01-15T07:09:51;94247.94;;;-5.05;100.00
43934;BME280;59081;42.706;23.306;2024-01-15T07:14:52;94324.50;;;-4.92;100.00
43934;BME280;59081;42.706;23.306;2024-01-15T07:19:56;94373.78;;;-4.58;100.00
43934;BME280;59081;42.706;23.306;2024-01-15T07:24:57;94352.16;;;-4.16;100.00
43934;BME280;59081;42.706;23.306;2024-01-15T07:29:57;94375.19;;;-4.15;100.00
43934;BME280;59081;42.706;23.306;2024-01-15T07:34:58;94308.00;;;-3.44;100.00
43934;BME280;59081;42.706;23.306;2024-01-15T07:40:04;94447.00;;;-3.66;100.00
43934;BME280;59081;42.706;23.306;2024-01-15T07:56:26;94315.69;;;-3.80;100.00
43934;BME280;59081;42.706;23.306;2024-01-15T08:01:28;94178.47;;;-4.50;100.00
43934;BME280;59081;42.706;23.306;2024-01-15T08:11:40;94320.47;;;-3.33;100.00
43934;BME280;59081;42.706;23.306;2024-01-15T08:16:42;94267.53;;;-4.22;100.00
43934;BME280;59081;42.706;23.306;2024-01-15T08:21:44;94342.81;;;-3.62;100.00
43934;BME280;59081;42.706;23.306;2024-01-15T08:26:45;94328.78;;;-3.78;100.00
43934;BME280;59081;42.706;23.306;2024-01-15T08:37:06;94446.72;;;-2.54;100.00
43934;BME280;59081;42.706;23.306;2024-01-15T08:42:07;94325.06;;;-2.96;100.00
43934;BME280;59081;42.706;23.306;2024-01-15T08:47:08;94422.38;;;-2.17;100.00
43934;BME280;59081;42.706;23.306;2024-01-15T08:52:12;94339.44;;;-2.30;100.00
43934;BME280;59081;42.706;23.306;2024-01-15T08:57:16;94254.63;;;-2.95;100.00
43934;BME280;59081;42.706;23.306;2024-01-15T09:02:16;94366.41;;;-2.30;100.00
43934;BME280;59081;42.706;23.306;2024-01-15T09:07:23;94369.75;;;-1.86;100.00
43934;BME280;59081;42.706;23.306;2024-01-15T09:12:26;94246.34;;;-2.65;100.00
43934;BME280;59081;42.706;23.306;2024-01-15T09:17:26;94189.91;;;-3.02;100.00
43934;BME280;59081;42.706;23.306;2024-01-15T09:22:28;94220.03;;;-2.17;99.54
43934;BME280;59081;42.706;23.306;2024-01-15T09:27:29;94353.81;;;-1.29;98.88
43934;BME280;59081;42.706;23.306;2024-01-15T09:32:29;94281.81;;;-1.90;99.68
43934;BME280;59081;42.706;23.306;2024-01-15T09:37:34;94214.75;;;-1.92;100.00
43934;BME280;59081;42.706;23.306;2024-01-15T09:42:35;94115.13;;;-2.39;97.60
43934;BME280;59081;42.706;23.306;2024-01-15T09:47:37;94157.97;;;-2.20;98.81
43934;BME280;59081;42.706;23.306;2024-01-15T09:52:38;94135.94;;;-2.43;98.57
43934;BME280;59081;42.706;23.306;2024-01-15T09:57:40;94133.41;;;-1.80;96.14
43934;BME280;59081;42.706;23.306;2024-01-15T10:02:41;94098.69;;;-1.85;92.31
43934;BME280;59081;42.706;23.306;2024-01-15T10:07:42;94224.25;;;0.29;87.19
43934;BME280;59081;42.706;23.306;2024-01-15T10:12:43;94128.72;;;0.18;83.81
43934;BME280;59081;42.706;23.306;2024-01-15T10:17:45;94134.88;;;0.22;85.85
43934;BME280;59081;42.706;23.306;2024-01-15T10:22:45;94253.56;;;1.97;81.09
43934;BME280;59081;42.706;23.306;2024-01-15T10:27:59;94135.28;;;0.76;81.02
43934;BME280;59081;42.706;23.306;2024-01-15T10:33:03;94026.97;;;0.65;78.93
43934;BME280;59081;42.706;23.306;2024-01-15T10:38:05;94100.47;;;1.53;76.72
43934;BME280;59081;42.706;23.306;2024-01-15T10:43:06;94164.06;;;1.52;78.94
43934;BME280;59081;42.706;23.306;2024-01-15T10:48:07;94004.75;;;0.81;77.16
43934;BME280;59081;42.706;23.306;2024-01-15T10:53:09;94207.44;;;2.58;74.88
43934;BME280;59081;42.706;23.306;2024-01-15T10:58:12;94204.75;;;2.24;76.80
43934;BME280;59081;42.706;23.306;2024-01-15T11:03:14;94017.28;;;0.68;78.42
43934;BME280;59081;42.706;23.306;2024-01-15T11:08:17;94184.78;;;2.64;75.13
43934;BME280;59081;42.706;23.306;2024-01-15T11:13:22;94168.13;;;3.12;74.82
43934;BME280;59081;42.706;23.306;2024-01-15T11:18:42;93959.25;;;1.30;75.90
43934;BME280;59081;42.706;23.306;2024-01-15T11:23:44;93941.06;;;1.27;76.36
43934;BME280;59081;42.706;23.306;2024-01-15T11:28:49;94054.06;;;2.28;73.74
43934;BME280;59081;42.706;23.306;2024-01-15T11:33:50;94151.09;;;3.08;73.11
43934;BME280;59081;42.706;23.306;2024-01-15T11:38:51;93956.41;;;1.67;73.34
43934;BME280;59081;42.706;23.306;2024-01-15T11:43:52;94149.72;;;2.97;74.45
43934;BME280;59081;42.706;23.306;2024-01-15T11:49:00;94144.69;;;2.72;73.89
43934;BME280;59081;42.706;23.306;2024-01-15T11:54:07;94006.41;;;1.97;73.80
43934;BME280;59081;42.706;23.306;2024-01-15T11:59:11;94020.78;;;2.48;73.33
43934;BME280;59081;42.706;23.306;2024-01-15T12:04:12;94084.50;;;2.70;73.26
43934;BME280;59081;42.706;23.306;2024-01-15T12:09:13;94021.47;;;2.28;73.11
43934;BME280;59081;42.706;23.306;2024-01-15T12:14:14;93994.78;;;2.23;74.23
43934;BME280;59081;42.706;23.306;2024-01-15T12:19:15;94015.75;;;2.46;73.92
43934;BME280;59081;42.706;23.306;2024-01-15T12:24:17;93983.00;;;2.30;73.06
43934;BME280;59081;42.706;23.306;2024-01-15T12:29:37;94099.53;;;3.01;73.04
43934;BME280;59081;42.706;23.306;2024-01-15T12:34:38;93937.75;;;1.96;73.64
43934;BME280;59081;42.706;23.306;2024-01-15T12:39:42;93965.38;;;1.91;75.94
43934;BME280;59081;42.706;23.306;2024-01-15T12:44:47;94067.34;;;2.96;75.30
43934;BME280;59081;42.706;23.306;2024-01-15T12:49:47;94075.25;;;2.64;76.79
43934;BME280;59081;42.706;23.306;2024-01-15T12:54:51;93871.25;;;1.58;74.50
43934;BME280;59081;42.706;23.306;2024-01-15T12:59:54;93974.84;;;2.06;76.32
43934;BME280;59081;42.706;23.306;2024-01-15T13:04:55;93986.13;;;2.28;78.22
43934;BME280;59081;42.706;23.306;2024-01-15T13:09:56;94018.59;;;2.62;74.79
43934;BME280;59081;42.706;23.306;2024-01-15T13:14:58;94056.72;;;2.82;75.81
43934;BME280;59081;42.706;23.306;2024-01-15T13:19:59;93843.22;;;1.64;75.90
43934;BME280;59081;42.706;23.306;2024-01-15T13:25:00;93831.66;;;1.37;78.34
43934;BME280;59081;42.706;23.306;2024-01-15T13:30:01;93957.28;;;2.38;77.89
43934;BME280;59081;42.706;23.306;2024-01-15T13:35:01;93899.78;;;1.93;76.53
43934;BME280;59081;42.706;23.306;2024-01-15T13:40:05;93972.81;;;2.37;77.54
43934;BME280;59081;42.706;23.306;2024-01-15T13:45:08;93797.47;;;1.39;76.16
43934;BME280;59081;42.706;23.306;2024-01-15T13:50:09;93834.25;;;1.67;75.82
43934;BME280;59081;42.706;23.306;2024-01-15T13:55:10;94008.91;;;3.04;76.95
43934;BME280;59081;42.706;23.306;2024-01-15T14:00:11;93977.06;;;2.38;79.32
43934;BME280;59081;42.706;23.306;2024-01-15T14:05:13;93968.97;;;2.78;78.27
43934;BME280;59081;42.706;23.306;2024-01-15T14:10:19;93818.81;;;1.64;79.38
43934;BME280;59081;42.706;23.306;2024-01-15T14:15:20;93908.91;;;2.06;80.01
43934;BME280;59081;42.706;23.306;2024-01-15T14:20:21;93819.31;;;1.79;79.01
43934;BME280;59081;42.706;23.306;2024-01-15T14:25:22;93941.28;;;1.93;83.29
43934;BME280;59081;42.706;23.306;2024-01-15T14:30:24;93867.97;;;1.93;81.97
43934;BME280;59081;42.706;23.306;2024-01-15T14:35:25;93792.94;;;1.33;83.19
43934;BME280;59081;42.706;23.306;2024-01-15T14:40:25;93869.22;;;2.55;80.34
43934;BME280;59081;42.706;23.306;2024-01-15T14:45:26;93859.63;;;2.47;nan
43934;BME280;59081;42.706;23.306;2024-01-15T14:50:47;93918.59;;;2.50;82.00
43934;BME280;59081;42.706;23.306;2024-01-15T14:55:48;93807.94;;;1.64;81.76
43934;BME280;59081;42.706;23.306;2024-01-15T15:00:49;93753.31;;;1.16;82.33
43934;BME280;59081;42.706;23.306;2024-01-15T15:05:49;93791.88;;;1.27;84.06
43934;BME280;59081;42.706;23.306;2024-01-15T15:10:50;93882.19;;;2.01;82.89
43934;BME280;59081;42.706;23.306;2024-01-15T15:15:52;93792.22;;;1.29;83.96
43934;BME280;59081;42.706;23.306;2024-01-15T15:20:54;93811.66;;;1.24;84.86
43934;BME280;59081;42.706;23.306;2024-01-15T15:31:13;93796.50;;;1.53;82.50
43934;BME280;59081;42.706;23.306;2024-01-15T15:36:20;93917.25;;;1.92;85.26
43934;BME280;59081;42.706;23.306;2024-01-15T15:46:39;93942.66;;;2.05;87.06
43934;BME280;59081;42.706;23.306;2024-01-15T15:51:41;93964.03;;;2.26;86.37
43934;BME280;59081;42.706;23.306;2024-01-15T15:56:41;93786.66;;;1.13;86.93
43934;BME280;59081;42.706;23.306;2024-01-15T16:01:48;93951.41;;;2.16;87.36
43934;BME280;59081;42.706;23.306;2024-01-15T16:06:49;93778.31;;;0.73;89.68
43934;BME280;59081;42.706;23.306;2024-01-15T16:11:51;93750.97;;;0.64;92.67
43934;BME280;59081;42.706;23.306;2024-01-15T16:16:55;93814.44;;;0.93;92.45
43934;BME280;59081;42.706;23.306;2024-01-15T16:21:58;93765.69;;;0.63;92.60
43934;BME280;59081;42.706;23.306;2024-01-15T16:26:59;93778.53;;;0.55;94.07
43934;BME280;59081;42.706;23.306;2024-01-15T16:32:01;93914.38;;;1.52;92.55
43934;BME280;59081;42.706;23.306;2024-01-15T16:37:02;93806.22;;;0.70;92.96
43934;BME280;59081;42.706;23.306;2024-01-15T16:42:03;93743.13;;;0.09;93.43
43934;BME280;59081;42.706;23.306;2024-01-15T16:47:04;93828.28;;;1.02;90.86
43934;BME280;59081;42.706;23.306;2024-01-15T16:52:05;93715.25;;;0.12;92.09
43934;BME280;59081;42.706;23.306;2024-01-15T16:57:06;93742.78;;;0.07;92.67
43934;BME280;59081;42.706;23.306;2024-01-15T17:02:07;93754.84;;;0.32;91.73
43934;BME280;59081;42.706;23.306;2024-01-15T17:07:08;93931.34;;;1.56;93.32
43934;BME280;59081;42.706;23.306;2024-01-15T17:12:10;93952.31;;;1.56;93.25
43934;BME280;59081;42.706;23.306;2024-01-15T17:17:12;93818.59;;;0.71;93.03
43934;BME280;59081;42.706;23.306;2024-01-15T17:22:16;93712.47;;;-0.15;94.48
43934;BME280;59081;42.706;23.306;2024-01-15T17:27:17;93731.97;;;0.03;93.25
43934;BME280;59081;42.706;23.306;2024-01-15T17:32:21;93861.03;;;0.85;94.66
43934;BME280;59081;42.706;23.306;2024-01-15T17:37:24;93810.56;;;0.33;95.87
43934;BME280;59081;42.706;23.306;2024-01-15T17:42:25;93746.25;;;0.38;92.67
43934;BME280;59081;42.706;23.306;2024-01-15T17:47:26;93926.56;;;1.67;91.95
43934;BME280;59081;42.706;23.306;2024-01-15T17:52:30;93788.34;;;0.46;94.89
43934;BME280;59081;42.706;23.306;2024-01-15T17:57:31;93776.25;;;0.54;93.73
43934;BME280;59081;42.706;23.306;2024-01-15T18:02:31;93822.84;;;0.72;95.22
43934;BME280;59081;42.706;23.306;2024-01-15T18:07:32;93712.97;;;0.10;94.06
43934;BME280;59081;42.706;23.306;2024-01-15T18:12:33;93696.84;;;-0.01;94.12
43934;BME280;59081;42.706;23.306;2024-01-15T18:17:33;93867.56;;;1.18;92.33
43934;BME280;59081;42.706;23.306;2024-01-15T18:22:38;93790.69;;;0.74;92.10
43934;BME280;59081;42.706;23.306;2024-01-15T18:27:39;93753.63;;;0.37;94.36
43934;BME280;59081;42.706;23.306;2024-01-15T18:32:40;93829.84;;;1.00;93.20
43934;BME280;59081;42.706;23.306;2024-01-15T18:37:45;93653.47;;;0.03;92.61
43934;BME280;59081;42.706;23.306;2024-01-15T18:42:48;93835.13;;;1.11;93.74
43934;BME280;59081;42.706;23.306;2024-01-15T18:47:49;93871.81;;;1.19;95.00
43934;BME280;59081;42.706;23.306;2024-01-15T18:52:50;93858.41;;;1.35;95.16
43934;BME280;59081;42.706;23.306;2024-01-15T18:57:53;93871.81;;;1.19;98.45
43934;BME280;59081;42.706;23.306;2024-01-15T19:02:54;93851.94;;;0.98;100.00
43934;BME280;59081;42.706;23.306;2024-01-15T19:07:58;93901.28;;;1.17;100.00
43934;BME280;59081;42.706;23.306;2024-01-15T19:12:59;93795.19;;;0.54;100.00
43934;BME280;59081;42.706;23.306;2024-01-15T19:18:00;93695.06;;;-0.14;100.00
43934;BME280;59081;42.706;23.306;2024-01-15T19:23:03;93813.66;;;0.66;100.00
43934;BME280;59081;42.706;23.306;2024-01-15T19:28:05;93828.63;;;1.31;100.00
43934;BME280;59081;42.706;23.306;2024-01-15T19:33:06;93839.41;;;1.85;100.00
43934;BME280;59081;42.706;23.306;2024-01-15T19:38:07;93871.06;;;1.18;100.00
43934;BME280;59081;42.706;23.306;2024-01-15T19:43:07;93904.63;;;1.28;100.00
43934;BME280;59081;42.706;23.306;2024-01-15T19:48:08;93898.53;;;1.74;100.00
43934;BME280;59081;42.706;23.306;2024-01-15T19:53:09;93697.13;;;0.09;100.00
43934;BME280;59081;42.706;23.306;2024-01-15T19:58:09;93778.09;;;0.87;100.00
43934;BME280;59081;42.706;23.306;2024-01-15T20:03:10;93778.06;;;0.33;100.00
43934;BME280;59081;42.706;23.306;2024-01-15T20:08:10;93669.72;;;0.33;100.00
43934;BME280;59081;42.706;23.306;2024-01-15T20:13:11;93725.75;;;0.67;100.00
43934;BME280;59081;42.706;23.306;2024-01-15T20:18:12;93793.28;;;0.85;100.00
43934;BME280;59081;42.706;23.306;2024-01-15T20:23:12;93775.66;;;0.96;100.00
43934;BME280;59081;42.706;23.306;2024-01-15T20:28:13;93717.19;;;0.42;100.00
43934;BME280;59081;42.706;23.306;2024-01-15T20:33:13;93641.66;;;-0.10;100.00
43934;BME280;59081;42.706;23.306;2024-01-15T20:38:15;93658.25;;;0.22;100.00
43934;BME280;59081;42.706;23.306;2024-01-15T20:43:15;93846.97;;;0.93;100.00
43934;BME280;59081;42.706;23.306;2024-01-15T20:48:16;93816.06;;;1.41;100.00
43934;BME280;59081;42.706;23.306;2024-01-15T20:53:16;93737.13;;;0.55;100.00
43934;BME280;59081;42.706;23.306;2024-01-15T20:58:23;93631.56;;;-0.06;100.00
43934;BME280;59081;42.706;23.306;2024-01-15T21:03:24;93812.00;;;1.02;100.00
43934;BME280;59081;42.706;23.306;2024-01-15T21:08:25;93721.00;;;0.48;100.00
43934;BME280;59081;42.706;23.306;2024-01-15T21:13:25;93613.41;;;-0.09;100.00
43934;BME280;59081;42.706;23.306;2024-01-15T21:18:26;93808.66;;;1.18;100.00
43934;BME280;59081;42.706;23.306;2024-01-15T21:23:27;93686.56;;;0.72;100.00
43934;BME280;59081;42.706;23.306;2024-01-15T21:28:28;93806.50;;;1.33;100.00
43934;BME280;59081;42.706;23.306;2024-01-15T21:33:30;93693.78;;;0.55;100.00
43934;BME280;59081;42.706;23.306;2024-01-15T21:38:36;93644.97;;;0.31;97.88
43934;BME280;59081;42.706;23.306;2024-01-15T21:43:37;93680.06;;;0.39;100.00
43934;BME280;59081;42.706;23.306;2024-01-15T21:48:39;93715.59;;;0.71;98.14
43934;BME280;59081;42.706;23.306;2024-01-15T21:53:40;93668.72;;;0.74;96.09
43934;BME280;59081;42.706;23.306;2024-01-15T21:58:41;93772.13;;;1.26;96.45
43934;BME280;59081;42.706;23.306;2024-01-15T22:03:41;93585.75;;;0.07;94.52
43934;BME280;59081;42.706;23.306;2024-01-15T22:08:42;93695.31;;;0.56;97.92
43934;BME280;59081;42.706;23.306;2024-01-15T22:13:45;93788.69;;;1.32;96.04
43934;BME280;59081;42.706;23.306;2024-01-15T22:18:45;93598.28;;;-0.03;97.64
43934;BME280;59081;42.706;23.306;2024-01-15T22:23:47;93676.34;;;0.56;97.86
43934;BME280;59081;42.706;23.306;2024-01-15T22:28:48;93800.84;;;1.47;100.00
43934;BME280;59081;42.706;23.306;2024-01-15T22:33:48;93625.53;;;0.37;100.00
43934;BME280;59081;42.706;23.306;2024-01-15T22:38:49;93644.31;;;0.51;100.00
43934;BME280;59081;42.706;23.306;2024-01-15T22:43:50;93703.03;;;0.84;100.00
43934;BME280;59081;42.706;23.306;2024-01-15T22:48:50;93637.00;;;0.48;100.00
43934;BME280;59081;42.706;23.306;2024-01-15T22:53:51;93663.44;;;0.67;100.00
43934;BME280;59081;42.706;23.306;2024-01-15T22:58:52;93637.50;;;0.66;100.00
43934;BME280;59081;42.706;23.306;2024-01-15T23:03:52;93660.22;;;0.49;100.00
43934;BME280;59081;42.706;23.306;2024-01-15T23:08:53;93792.22;;;1.75;100.00
43934;BME280;59081;42.706;23.306;2024-01-15T23:13:53;93682.13;;;0.31;100.00
43934;BME280;59081;42.706;23.306;2024-01-15T23:18:54;93568.16;;;0.45;100.00
43934;BME280;59081;42.706;23.306;2024-01-15T23:23:55;93622.06;;;1.10;100.00
43934;BME280;59081;42.706;23.306;2024-01-15T23:28:56;93547.19;;;-0.28;100.00
43934;BME280;59081;42.706;23.306;2024-01-15T23:33:56;93646.34;;;0.93;100.00
43934;BME280;59081;42.706;23.306;2024-01-15T23:38:57;93631.19;;;0.49;100.00
43934;BME280;59081;42.706;23.306;2024-01-15T23:43:58;93724.88;;;1.24;100.00
43934;BME280;59081;42.706;23.306;2024-01-15T23:48:58;93512.97;;;-0.42;100.00
43934;BME280;59081;42.706;23.306;2024-01-15T23:53:59;93556.50;;;-0.02;100.00
43934;BME280;59081;42.706;23.306;2024-01-15T23:58:59;93691.50;;;1.27;100.00
